Time,TemperatureF,DewpointF,PressureIn,WindDirection,WindDirectionDegrees,WindSpeedMPH,WindSpeedGustMPH,Humidity,HourlyPrecipIn,Conditions,Clouds,dailyrainin,SolarRadiationWatts/m^2,SoftwareType,DateUTC
2013-07-08 00:00:00,78.2,74.4,30.14,ESE,110,2.0,6.0,88,0.00,,CLR,0.00,0.00,VWS V14.01,2013-07-08 04:00:00,
2013-07-08 00:01:00,78.2,74.4,30.14,ESE,109,3.0,6.0,88,0.00,,CLR,0.00,0.00,VWS V14.01,2013-07-08 04:01:00,
2013-07-08 00:07:00,78.2,74.4,30.14,ESE,105,1.0,3.0,88,0.00,,CLR,0.00,0.00,VWS V14.01,2013-07-08 04:07:00,
2013-07-08 00:12:00,77.9,74.4,30.14,ESE,105,1.0,3.0,89,0.00,,CLR,0.00,0.00,VWS V14.01,2013-07-08 04:12:00,
2013-07-08 00:17:00,77.6,74.1,30.14,ESE,117,1.0,3.0,89,0.00,,CLR,0.00,0.00,VWS V14.01,2013-07-08 04:17:00,
2013-07-08 00:22:00,77.7,74.5,30.13,ESE,117,0.0,3.0,90,0.00,,CLR,0.00,0.00,VWS V14.01,2013-07-08 04:22:00,
2013-07-08 00:27:00,77.9,74.4,30.13,ESE,117,1.0,3.0,89,0.00,,CLR,0.00,0.00,VWS V14.01,2013-07-08 04:27:00,
2013-07-08 00:32:00,77.8,74.3,30.13,East,96,0.0,1.0,89,0.00,,CLR,0.00,0.00,VWS V14.01,2013-07-08 04:32:00,
2013-07-08 00:37:00,77.8,74.3,30.13,East,96,0.0,2.0,89,0.00,,CLR,0.00,0.00,VWS V14.01,2013-07-08 04:37:00,
2013-07-08 00:42:00,77.8,74.3,30.13,East,96,0.0,2.0,89,0.00,,CLR,0.00,0.00,VWS V14.01,2013-07-08 04:42:00,
2013-07-08 00:47:00,77.6,74.1,30.13,East,96,2.0,2.0,89,0.00,,CLR,0.00,0.00,VWS V14.01,2013-07-08 04:47:00,
2013-07-08 00:52:00,77.3,74.1,30.13,East,96,1.0,2.0,90,0.00,,CLR,0.00,0.00,VWS V14.01,2013-07-08 04:52:00,
2013-07-08 00:57:00,77.3,74.5,30.13,East,96,1.0,2.0,91,0.00,,CLR,0.00,0.00,VWS V14.01,2013-07-08 04:57:00,
2013-07-08 01:02:00,77.1,74.3,30.12,East,95,1.0,2.0,91,0.00,,CLR,0.00,0.00,VWS V14.01,2013-07-08 05:02:00,
2013-07-08 01:07:00,77.2,74.4,30.13,East,98,3.0,5.0,91,0.00,,CLR,0.00,0.00,VWS V14.01,2013-07-08 05:07:00,
2013-07-08 01:12:00,77.3,74.8,30.13,East,98,3.0,5.0,92,0.00,,CLR,0.00,0.00,VWS V14.01,2013-07-08 05:12:00,
2013-07-08 01:17:00,77.3,74.5,30.12,East,101,3.0,5.0,91,0.00,,CLR,0.00,0.00,VWS V14.01,2013-07-08 05:17:00,
2013-07-08 01:22:00,77.3,74.8,30.13,ESE,102,1.0,5.0,92,0.00,,CLR,0.00,0.00,VWS V14.01,2013-07-08 05:22:00,
2013-07-08 01:27:00,77.2,74.7,30.12,ESE,102,1.0,5.0,92,0.00,,CLR,0.00,0.00,VWS V14.01,2013-07-08 05:27:00,
2013-07-08 01:32:00,77.1,74.6,30.13,ESE,102,1.0,1.0,92,0.00,,CLR,0.00,0.00,VWS V14.01,2013-07-08 05:32:00,
2013-07-08 01:37:00,77.1,74.6,30.13,ESE,102,0.0,1.0,92,0.00,,CLR,0.00,0.00,VWS V14.01,2013-07-08 05:37:00,
2013-07-08 01:42:00,76.9,74.4,30.13,ESE,102,0.0,1.0,92,0.00,,CLR,0.00,0.00,VWS V14.01,2013-07-08 05:42:00,
2013-07-08 01:47:00,76.8,74.3,30.13,ESE,102,1.0,2.0,92,0.00,,CLR,0.00,0.00,VWS V14.01,2013-07-08 05:47:00,
2013-07-08 01:52:00,76.7,74.2,30.13,ESE,102,1.0,2.0,92,0.00,,CLR,0.00,0.00,VWS V14.01,2013-07-08 05:52:00,
2013-07-08 01:57:00,76.8,74.6,30.12,ESE,102,1.0,2.0,93,0.00,,CLR,0.00,0.00,VWS V14.01,2013-07-08 05:57:00,
2013-07-08 02:02:00,76.7,74.5,30.12,ESE,102,1.0,2.0,93,0.00,,CLR,0.00,0.00,VWS V14.01,2013-07-08 06:02:00,
2013-07-08 02:07:00,76.9,74.7,30.12,ESE,102,2.0,4.0,93,0.00,,CLR,0.00,0.00,VWS V14.01,2013-07-08 06:07:00,
2013-07-08 02:12:00,76.9,74.7,30.12,ESE,102,1.0,4.0,93,0.00,,CLR,0.00,0.00,VWS V14.01,2013-07-08 06:12:00,
2013-07-08 02:17:00,76.8,74.6,30.12,ESE,102,1.0,4.0,93,0.00,,CLR,0.00,0.00,VWS V14.01,2013-07-08 06:17:00,
2013-07-08 02:22:00,76.8,74.6,30.12,ESE,102,0.0,4.0,93,0.00,,CLR,0.00,0.00,VWS V14.01,2013-07-08 06:22:00,
2013-07-08 02:27:00,76.8,74.6,30.12,ESE,102,0.0,4.0,93,0.00,,CLR,0.00,0.00,VWS V14.01,2013-07-08 06:27:00,
2013-07-08 02:32:00,76.7,74.5,30.12,ESE,102,1.0,2.0,93,0.00,,CLR,0.00,0.00,VWS V14.01,2013-07-08 06:32:00,
2013-07-08 02:37:00,76.7,74.5,30.12,ESE,102,0.0,2.0,93,0.00,,CLR,0.00,0.00,VWS V14.01,2013-07-08 06:37:00,
2013-07-08 02:42:00,76.5,74.7,30.11,ESE,102,1.0,2.0,94,0.00,,CLR,0.00,0.00,VWS V14.01,2013-07-08 06:42:00,
2013-07-08 02:47:00,76.6,74.8,30.11,ESE,102,2.0,3.0,94,0.00,,CLR,0.00,0.00,VWS V14.01,2013-07-08 06:47:00,
2013-07-08 02:52:00,76.6,74.8,30.11,ESE,102,2.0,3.0,94,0.00,,CLR,0.00,0.00,VWS V14.01,2013-07-08 06:52:00,
2013-07-08 02:57:00,76.5,74.7,30.11,ESE,102,0.0,3.0,94,0.00,,CLR,0.00,0.00,VWS V14.01,2013-07-08 06:57:00,
2013-07-08 03:02:00,76.4,74.6,30.11,ESE,102,0.0,1.0,94,0.00,,CLR,0.00,0.00,VWS V14.01,2013-07-08 07:02:00,
2013-07-08 03:07:00,76.4,74.6,30.11,ESE,102,2.0,3.0,94,0.00,,CLR,0.00,0.00,VWS V14.01,2013-07-08 07:07:00,
2013-07-08 03:12:00,76.4,74.6,30.11,ESE,102,0.0,3.0,94,0.00,,CLR,0.00,0.00,VWS V14.01,2013-07-08 07:12:00,
2013-07-08 03:17:00,76.2,74.3,30.11,ESE,102,1.0,3.0,94,0.00,,CLR,0.00,0.00,VWS V14.01,2013-07-08 07:17:00,
2013-07-08 03:22:00,76.2,74.3,30.10,ESE,102,0.0,3.0,94,0.00,,CLR,0.00,0.00,VWS V14.01,2013-07-08 07:22:00,
2013-07-08 03:28:00,76.2,74.3,30.11,ESE,102,0.0,3.0,94,0.00,,CLR,0.00,0.00,VWS V14.01,2013-07-08 07:28:00,
2013-07-08 03:33:00,76.1,74.2,30.11,ESE,102,0.0,0.0,94,0.00,,CLR,0.00,0.00,VWS V14.01,2013-07-08 07:33:00,
2013-07-08 03:37:00,75.9,74.1,30.11,ESE,102,0.0,0.0,94,0.00,,CLR,0.00,0.00,VWS V14.01,2013-07-08 07:37:00,
2013-07-08 03:42:00,75.7,73.8,30.11,ESE,102,0.0,0.0,94,0.00,,CLR,0.00,0.00,VWS V14.01,2013-07-08 07:42:00,
2013-07-08 03:47:00,75.4,73.6,30.11,ESE,102,0.0,0.0,94,0.00,,CLR,0.00,0.00,VWS V14.01,2013-07-08 07:47:00,
2013-07-08 03:52:00,75.4,73.9,30.11,ESE,102,0.0,0.0,95,0.00,,CLR,0.00,0.00,VWS V14.01,2013-07-08 07:52:00,
2013-07-08 03:57:00,75.5,74.0,30.11,ESE,102,0.0,1.0,95,0.00,,CLR,0.00,0.00,VWS V14.01,2013-07-08 07:57:00,
2013-07-08 04:02:00,75.3,73.8,30.11,ESE,102,1.0,1.0,95,0.00,,CLR,0.00,0.00,VWS V14.01,2013-07-08 08:02:00,
2013-07-08 04:07:00,75.6,74.1,30.10,ESE,102,2.0,2.0,95,0.00,,CLR,0.00,0.00,VWS V14.01,2013-07-08 08:07:00,
2013-07-08 04:13:00,75.7,74.2,30.10,ESE,102,0.0,2.0,95,0.00,,CLR,0.00,0.00,VWS V14.01,2013-07-08 08:13:00,
2013-07-08 04:18:00,75.5,74.0,30.11,ESE,102,0.0,2.0,95,0.00,,CLR,0.00,0.00,VWS V14.01,2013-07-08 08:18:00,
2013-07-08 04:22:00,75.3,73.8,30.11,ESE,102,0.0,2.0,95,0.00,,CLR,0.00,0.00,VWS V14.01,2013-07-08 08:22:00,
2013-07-08 04:27:00,75.2,73.7,30.11,ESE,102,0.0,2.0,95,0.00,,CLR,0.00,0.00,VWS V14.01,2013-07-08 08:27:00,
2013-07-08 04:32:00,75.0,73.5,30.11,ESE,102,0.0,1.0,95,0.00,,CLR,0.00,0.00,VWS V14.01,2013-07-08 08:32:00,
2013-07-08 04:37:00,75.0,73.5,30.11,ESE,102,1.0,1.0,95,0.00,,CLR,0.00,0.00,VWS V14.01,2013-07-08 08:37:00,
2013-07-08 04:42:00,75.0,73.8,30.11,ESE,102,0.0,1.0,96,0.00,,CLR,0.00,0.00,VWS V14.01,2013-07-08 08:42:00,
2013-07-08 04:47:00,74.9,73.4,30.11,ESE,102,1.0,1.0,95,0.00,,CLR,0.00,0.00,VWS V14.01,2013-07-08 08:47:00,
2013-07-08 04:52:00,74.8,73.3,30.11,ESE,102,2.0,2.0,95,0.00,,CLR,0.00,0.00,VWS V14.01,2013-07-08 08:52:00,
2013-07-08 04:58:00,74.8,73.6,30.11,ESE,102,1.0,2.0,96,0.00,,CLR,0.00,0.00,VWS V14.01,2013-07-08 08:58:00,
2013-07-08 05:03:00,74.8,73.6,30.11,ESE,102,1.0,2.0,96,0.00,,CLR,0.00,0.00,VWS V14.01,2013-07-08 09:03:00,
2013-07-08 05:08:00,74.7,73.5,30.11,ESE,102,1.0,2.0,96,0.00,,CLR,0.00,0.00,VWS V14.01,2013-07-08 09:08:00,
2013-07-08 05:13:00,74.5,73.3,30.10,ESE,102,0.0,2.0,96,0.00,,CLR,0.00,0.00,VWS V14.01,2013-07-08 09:13:00,
2013-07-08 05:18:00,74.5,73.3,30.11,ESE,102,0.0,2.0,96,0.00,,CLR,0.00,0.00,VWS V14.01,2013-07-08 09:18:00,
2013-07-08 05:22:00,74.4,73.2,30.10,ESE,102,0.0,2.0,96,0.00,,CLR,0.00,0.00,VWS V14.01,2013-07-08 09:22:00,
2013-07-08 05:28:00,74.4,73.2,30.11,ESE,102,1.0,2.0,96,0.00,,CLR,0.00,0.00,VWS V14.01,2013-07-08 09:28:00,
2013-07-08 05:33:00,74.3,73.1,30.11,ESE,102,0.0,1.0,96,0.00,,CLR,0.00,0.00,VWS V14.01,2013-07-08 09:33:00,
2013-07-08 05:38:00,74.2,73.0,30.11,ESE,102,0.0,1.0,96,0.00,,CLR,0.00,0.00,VWS V14.01,2013-07-08 09:38:00,
2013-07-08 05:43:00,74.1,72.9,30.11,ESE,102,1.0,2.0,96,0.00,,CLR,0.00,0.00,VWS V14.01,2013-07-08 09:43:00,
2013-07-08 05:48:00,74.3,73.1,30.11,ESE,102,3.0,3.0,96,0.00,,CLR,0.00,0.00,VWS V14.01,2013-07-08 09:48:00,
2013-07-08 05:53:00,74.4,73.5,30.11,East,101,1.0,3.0,97,0.00,,CLR,0.00,0.00,VWS V14.01,2013-07-08 09:53:00,
2013-07-08 05:58:00,74.4,73.5,30.11,East,101,2.0,3.0,97,0.00,,CLR,0.00,0.00,VWS V14.01,2013-07-08 09:58:00,
2013-07-08 06:03:00,74.3,73.4,30.11,East,101,2.0,3.0,97,0.00,,CLR,0.00,0.00,VWS V14.01,2013-07-08 10:03:00,
2013-07-08 06:08:00,74.3,73.4,30.11,East,101,1.0,3.0,97,0.00,,CLR,0.00,0.00,VWS V14.01,2013-07-08 10:08:00,
2013-07-08 06:13:00,74.3,73.4,30.12,East,101,2.0,3.0,97,0.00,,CLR,0.00,0.00,VWS V14.01,2013-07-08 10:13:00,
2013-07-08 06:18:00,74.3,73.4,30.12,East,101,0.0,3.0,97,0.00,,CLR,0.00,0.00,VWS V14.01,2013-07-08 10:18:00,
2013-07-08 06:23:00,74.3,73.4,30.12,East,101,1.0,3.0,97,0.00,,CLR,0.00,0.00,VWS V14.01,2013-07-08 10:23:00,
2013-07-08 06:28:00,74.4,73.5,30.12,East,101,2.0,5.0,97,0.00,,CLR,0.00,0.00,VWS V14.01,2013-07-08 10:28:00,
2013-07-08 06:33:00,74.4,73.5,30.12,ENE,78,0.0,3.0,97,0.00,,CLR,0.00,0.00,VWS V14.01,2013-07-08 10:33:00,
2013-07-08 06:38:00,74.3,73.4,30.12,East,80,3.0,3.0,97,0.00,,CLR,0.00,5.00,VWS V14.01,2013-07-08 10:38:00,
2013-07-08 06:43:00,74.3,73.4,30.12,ENE,69,1.0,3.0,97,0.00,,CLR,0.00,7.00,VWS V14.01,2013-07-08 10:43:00,
2013-07-08 06:48:00,74.3,73.4,30.12,ENE,63,0.0,3.0,97,0.00,,CLR,0.00,11.00,VWS V14.01,2013-07-08 10:48:00,
2013-07-08 06:53:00,74.3,73.4,30.13,East,82,2.0,3.0,97,0.00,,CLR,0.00,12.00,VWS V14.01,2013-07-08 10:53:00,
2013-07-08 06:58:00,74.3,73.4,30.13,ENE,65,2.0,3.0,97,0.00,,CLR,0.00,12.00,VWS V14.01,2013-07-08 10:58:00,
2013-07-08 07:03:00,74.2,73.3,30.13,ENE,77,1.0,3.0,97,0.00,,CLR,0.00,18.00,VWS V14.01,2013-07-08 11:03:00,
2013-07-08 07:08:00,74.3,73.4,30.13,ENE,76,1.0,3.0,97,0.00,,CLR,0.00,23.00,VWS V14.01,2013-07-08 11:08:00,
2013-07-08 07:13:00,74.4,73.5,30.13,East,85,1.0,3.0,97,0.00,,CLR,0.00,26.00,VWS V14.01,2013-07-08 11:13:00,
2013-07-08 07:18:00,74.6,73.7,30.13,East,79,0.0,3.0,97,0.00,,CLR,0.00,51.00,VWS V14.01,2013-07-08 11:18:00,
2013-07-08 07:23:00,74.7,73.8,30.13,East,79,0.0,3.0,97,0.00,,CLR,0.00,60.00,VWS V14.01,2013-07-08 11:23:00,
2013-07-08 07:28:00,75.0,74.1,30.13,ENE,78,2.0,3.0,97,0.00,,CLR,0.00,70.00,VWS V14.01,2013-07-08 11:28:00,
2013-07-08 07:33:00,75.2,74.3,30.13,NE,52,1.0,4.0,97,0.00,,CLR,0.00,84.00,VWS V14.01,2013-07-08 11:33:00,
2013-07-08 07:38:00,75.5,74.6,30.13,East,92,1.0,6.0,97,0.00,,CLR,0.00,97.00,VWS V14.01,2013-07-08 11:38:00,
2013-07-08 07:43:00,75.8,74.9,30.13,East,101,2.0,6.0,97,0.00,,CLR,0.00,102.00,VWS V14.01,2013-07-08 11:43:00,
2013-07-08 07:48:00,76.0,75.1,30.13,ESE,111,1.0,6.0,97,0.00,,CLR,0.00,111.00,VWS V14.01,2013-07-08 11:48:00,
2013-07-08 07:53:00,76.5,75.6,30.13,East,101,2.0,6.0,97,0.00,,CLR,0.00,123.00,VWS V14.01,2013-07-08 11:53:00,
2013-07-08 07:58:00,76.8,75.6,30.13,East,89,3.0,6.0,96,0.00,,CLR,0.00,142.00,VWS V14.01,2013-07-08 11:58:00,
2013-07-08 08:03:00,77.2,76.0,30.13,East,87,3.0,5.0,96,0.00,,CLR,0.00,162.00,VWS V14.01,2013-07-08 12:03:00,
2013-07-08 08:08:00,77.6,76.1,30.14,ESE,107,3.0,6.0,95,0.00,,CLR,0.00,185.00,VWS V14.01,2013-07-08 12:08:00,
2013-07-08 08:13:00,77.9,76.4,30.14,East,85,2.0,6.0,95,0.00,,CLR,0.00,200.00,VWS V14.01,2013-07-08 12:13:00,
2013-07-08 08:18:00,78.3,76.4,30.14,ESE,113,5.0,7.0,94,0.00,,CLR,0.00,200.00,VWS V14.01,2013-07-08 12:18:00,
2013-07-08 08:23:00,78.6,76.4,30.14,ENE,65,4.0,8.0,93,0.00,,CLR,0.00,202.00,VWS V14.01,2013-07-08 12:23:00,
2013-07-08 08:28:00,78.9,76.7,30.14,ESE,103,4.0,8.0,93,0.00,,CLR,0.00,195.00,VWS V14.01,2013-07-08 12:28:00,
2013-07-08 08:33:00,79.4,76.9,30.15,ESE,103,5.0,7.0,92,0.00,,CLR,0.00,229.00,VWS V14.01,2013-07-08 12:33:00,
2013-07-08 08:38:00,79.5,76.7,30.15,ESE,109,3.0,8.0,91,0.00,,CLR,0.00,260.00,VWS V14.01,2013-07-08 12:38:00,
2013-07-08 08:43:00,79.8,76.9,30.15,East,88,2.0,8.0,91,0.00,,CLR,0.00,274.00,VWS V14.01,2013-07-08 12:43:00,
2013-07-08 08:48:00,80.3,77.1,30.15,ESE,103,5.0,8.0,90,0.00,,CLR,0.00,288.00,VWS V14.01,2013-07-08 12:48:00,
2013-07-08 08:53:00,80.5,77.0,30.15,ENE,61,3.0,8.0,89,0.00,,CLR,0.00,301.00,VWS V14.01,2013-07-08 12:53:00,
2013-07-08 08:58:00,80.7,76.8,30.15,ENE,63,4.0,10.0,88,0.00,,CLR,0.00,318.00,VWS V14.01,2013-07-08 12:58:00,
2013-07-08 09:03:00,81.0,77.1,30.15,East,89,6.0,9.0,88,0.00,,FEW015,0.00,339.00,VWS V14.01,2013-07-08 13:03:00,
2013-07-08 09:08:00,81.3,77.4,30.15,ENE,71,5.0,9.0,88,0.00,,FEW015,0.00,353.00,VWS V14.01,2013-07-08 13:08:00,
2013-07-08 09:13:00,81.3,76.7,30.15,ESE,110,4.0,10.0,86,0.00,,FEW015,0.00,373.00,VWS V14.01,2013-07-08 13:13:00,
2013-07-08 09:18:00,81.5,76.6,30.15,ENE,67,5.0,13.0,85,0.00,,FEW015,0.00,401.00,VWS V14.01,2013-07-08 13:18:00,
2013-07-08 09:23:00,81.8,76.5,30.15,East,83,3.0,13.0,84,0.00,,FEW015,0.00,415.00,VWS V14.01,2013-07-08 13:23:00,
2013-07-08 09:28:00,82.2,76.9,30.15,ESE,103,3.0,13.0,84,0.00,,FEW015,0.00,446.00,VWS V14.01,2013-07-08 13:28:00,
2013-07-08 09:33:00,82.5,76.8,30.15,East,94,6.0,7.0,83,0.00,,FEW015,0.00,455.00,VWS V14.01,2013-07-08 13:33:00,
2013-07-08 09:38:00,82.5,76.8,30.15,East,98,6.0,11.0,83,0.00,,FEW015,0.00,497.00,VWS V14.01,2013-07-08 13:38:00,
2013-07-08 09:43:00,82.5,76.8,30.15,ESE,110,11.0,11.0,83,0.00,,FEW015,0.00,531.00,VWS V14.01,2013-07-08 13:43:00,
2013-07-08 09:48:00,82.8,76.8,30.15,SE,131,4.0,11.0,82,0.00,,FEW015,0.00,540.00,VWS V14.01,2013-07-08 13:48:00,
2013-07-08 09:53:00,83.0,76.9,30.15,SE,130,3.0,11.0,82,0.00,,FEW015,0.00,548.00,VWS V14.01,2013-07-08 13:53:00,
2013-07-08 09:58:00,83.0,76.6,30.15,ENE,77,7.0,11.0,81,0.00,,FEW015,0.00,573.00,VWS V14.01,2013-07-08 13:58:00,
2013-07-08 10:03:00,83.1,76.3,30.15,East,98,6.0,10.0,80,0.00,,BKN019,0.00,548.00,VWS V14.01,2013-07-08 14:03:00,
2013-07-08 10:08:00,83.3,76.5,30.15,ENE,73,3.0,10.0,80,0.00,,BKN019,0.00,555.00,VWS V14.01,2013-07-08 14:08:00,
2013-07-08 10:13:00,83.7,76.1,30.16,NE,47,5.0,10.0,78,0.00,,BKN019,0.00,640.00,VWS V14.01,2013-07-08 14:13:00,
2013-07-08 10:18:00,84.0,76.4,30.16,East,98,5.0,10.0,78,0.00,,BKN019,0.00,638.00,VWS V14.01,2013-07-08 14:18:00,
2013-07-08 10:23:00,84.0,76.4,30.16,East,99,7.0,10.0,78,0.00,,BKN019,0.00,626.00,VWS V14.01,2013-07-08 14:23:00,
2013-07-08 10:28:00,83.8,75.4,30.16,ESE,102,7.0,10.0,76,0.00,,BKN019,0.00,587.00,VWS V14.01,2013-07-08 14:28:00,
2013-07-08 10:33:00,84.1,76.5,30.16,ENE,76,7.0,9.0,78,0.00,,BKN019,0.00,606.00,VWS V14.01,2013-07-08 14:33:00,
2013-07-08 10:38:00,84.8,77.2,30.16,ESE,115,1.0,9.0,78,0.00,,BKN019,0.00,619.00,VWS V14.01,2013-07-08 14:38:00,
2013-07-08 10:43:00,84.9,76.9,30.16,ESE,106,3.0,9.0,77,0.00,,BKN019,0.00,649.00,VWS V14.01,2013-07-08 14:43:00,
2013-07-08 10:48:00,84.7,76.3,30.16,East,79,2.0,9.0,76,0.00,,BKN019,0.00,515.00,VWS V14.01,2013-07-08 14:48:00,
2013-07-08 10:53:00,84.8,76.0,30.16,NNE,30,3.0,9.0,75,0.00,,BKN019,0.00,325.00,VWS V14.01,2013-07-08 14:53:00,
2013-07-08 10:58:00,85.8,77.0,30.16,NE,44,7.0,9.0,75,0.00,,BKN026,0.00,816.00,VWS V14.01,2013-07-08 14:58:00,
2013-07-08 11:03:00,85.0,75.8,30.16,East,85,2.0,6.0,74,0.00,,BKN026,0.00,782.00,VWS V14.01,2013-07-08 15:03:00,
2013-07-08 11:08:00,85.5,77.5,30.16,ESE,113,4.0,6.0,77,0.00,,BKN026,0.00,796.00,VWS V14.01,2013-07-08 15:08:00,
2013-07-08 11:13:00,84.8,76.4,30.16,ESE,114,3.0,6.0,76,0.00,,BKN026,0.00,338.00,VWS V14.01,2013-07-08 15:13:00,
2013-07-08 11:18:00,85.1,76.7,30.16,ESE,111,7.0,8.0,76,0.00,,BKN026,0.00,877.00,VWS V14.01,2013-07-08 15:18:00,
2013-07-08 11:23:00,85.8,77.0,30.16,SE,128,4.0,9.0,75,0.00,,BKN026,0.00,830.00,VWS V14.01,2013-07-08 15:23:00,
2013-07-08 11:28:00,86.1,76.4,30.16,SSE,147,4.0,9.0,73,0.00,,BKN026,0.00,865.00,VWS V14.01,2013-07-08 15:28:00,
2013-07-08 11:33:00,85.6,76.4,30.16,ESE,113,3.0,4.0,74,0.00,,BKN026,0.00,285.00,VWS V14.01,2013-07-08 15:33:00,
2013-07-08 11:38:00,84.8,75.2,30.17,ENE,69,2.0,8.0,73,0.00,,BKN026,0.00,318.00,VWS V14.01,2013-07-08 15:38:00,
2013-07-08 11:43:00,85.1,75.9,30.16,ESE,113,0.0,8.0,74,0.00,,BKN026,0.00,431.00,VWS V14.01,2013-07-08 15:43:00,
2013-07-08 11:48:00,86.0,76.3,30.16,East,92,1.0,8.0,73,0.00,,BKN026,0.00,981.00,VWS V14.01,2013-07-08 15:48:00,
2013-07-08 11:53:00,86.6,74.8,30.16,ESE,110,2.0,8.0,68,0.00,,BKN026,0.00,1028.00,VWS V14.01,2013-07-08 15:53:00,
2013-07-08 11:58:00,85.9,75.4,30.16,NE,43,1.0,8.0,71,0.00,,BKN026,0.00,281.00,VWS V14.01,2013-07-08 15:58:00,
2013-07-08 12:03:00,86.9,75.5,30.16,NE,53,5.0,7.0,69,0.00,,BKN034,0.00,944.00,VWS V14.01,2013-07-08 16:03:00,
2013-07-08 12:08:00,86.1,74.8,30.16,NE,38,3.0,8.0,69,0.00,,BKN034,0.00,209.00,VWS V14.01,2013-07-08 16:08:00,
2013-07-08 12:13:00,86.1,74.3,30.16,NE,34,5.0,8.0,68,0.00,,BKN034,0.00,225.00,VWS V14.01,2013-07-08 16:13:00,
2013-07-08 12:18:00,86.0,74.7,30.16,NE,35,1.0,8.0,69,0.00,,BKN034,0.00,229.00,VWS V14.01,2013-07-08 16:18:00,
2013-07-08 12:23:00,86.4,75.0,30.16,NNE,17,5.0,8.0,69,0.00,,BKN034,0.00,1083.00,VWS V14.01,2013-07-08 16:23:00,
2013-07-08 12:28:00,86.8,75.0,30.16,East,85,0.0,8.0,68,0.00,,BKN034,0.00,197.00,VWS V14.01,2013-07-08 16:28:00,
2013-07-08 12:33:00,86.4,75.9,30.16,East,97,1.0,5.0,71,0.00,,BKN034,0.00,1044.00,VWS V14.01,2013-07-08 16:33:00,
2013-07-08 12:38:00,86.6,75.2,30.16,ESE,105,1.0,8.0,69,0.00,,BKN034,0.00,221.00,VWS V14.01,2013-07-08 16:38:00,
2013-07-08 12:44:00,86.8,75.8,30.16,ENE,71,3.0,8.0,70,0.00,,BKN034,0.00,1081.00,VWS V14.01,2013-07-08 16:44:00,
2013-07-08 12:49:00,86.3,74.9,30.15,East,83,1.0,9.0,69,0.00,,BKN034,0.00,323.00,VWS V14.01,2013-07-08 16:49:00,
2013-07-08 12:54:00,85.8,76.2,30.15,SE,125,2.0,9.0,73,0.00,,BKN034,0.00,1034.00,VWS V14.01,2013-07-08 16:54:00,
2013-07-08 12:59:00,87.2,77.5,30.15,East,84,8.0,10.0,73,0.00,,BKN034,0.00,802.00,VWS V14.01,2013-07-08 16:59:00,
2013-07-08 13:04:00,87.4,76.8,30.14,ESE,111,10.0,10.0,71,0.00,,SCT037,0.00,942.00,VWS V14.01,2013-07-08 17:04:00,
2013-07-08 13:10:00,88.1,77.1,30.14,ESE,108,5.0,10.0,70,0.00,,SCT037,0.00,972.00,VWS V14.01,2013-07-08 17:10:00,
2013-07-08 13:15:00,88.4,76.9,30.14,ENE,76,10.0,10.0,69,0.00,,SCT037,0.00,963.00,VWS V14.01,2013-07-08 17:15:00,
2013-07-08 13:20:00,88.3,76.0,30.14,East,101,3.0,10.0,67,0.00,,SCT037,0.00,977.00,VWS V14.01,2013-07-08 17:20:00,
2013-07-08 13:26:00,88.6,75.3,30.14,ENE,64,2.0,10.0,65,0.00,,SCT037,0.00,962.00,VWS V14.01,2013-07-08 17:26:00,
2013-07-08 13:31:00,88.8,75.5,30.14,SSE,148,1.0,10.0,65,0.00,,SCT037,0.00,956.00,VWS V14.01,2013-07-08 17:31:00,
2013-07-08 13:36:00,89.0,76.2,30.14,ESE,119,4.0,8.0,66,0.00,,SCT037,0.00,1018.00,VWS V14.01,2013-07-08 17:36:00,
2013-07-08 13:41:00,89.6,73.9,30.13,ENE,59,3.0,10.0,60,0.00,,SCT037,0.00,954.00,VWS V14.01,2013-07-08 17:41:00,
2013-07-08 13:46:00,89.7,75.4,30.13,SSE,149,6.0,10.0,63,0.00,,SCT037,0.00,788.00,VWS V14.01,2013-07-08 17:46:00,
2013-07-08 13:51:00,89.4,75.6,30.13,ESE,105,4.0,10.0,64,0.00,,SCT037,0.00,916.00,VWS V14.01,2013-07-08 17:51:00,
2013-07-08 13:57:00,89.8,75.5,30.13,ESE,107,9.0,10.0,63,0.00,,SCT037,0.00,967.00,VWS V14.01,2013-07-08 17:57:00,
2013-07-08 14:02:00,89.5,75.2,30.13,East,81,6.0,9.0,63,0.00,,SCT039,0.00,1004.00,VWS V14.01,2013-07-08 18:02:00,
2013-07-08 14:08:00,90.2,76.4,30.13,ESE,123,9.0,16.0,64,0.00,,SCT039,0.00,930.00,VWS V14.01,2013-07-08 18:08:00,
2013-07-08 14:13:00,90.1,75.8,30.12,ESE,107,4.0,16.0,63,0.00,,SCT039,0.00,912.00,VWS V14.01,2013-07-08 18:13:00,
2013-07-08 14:19:00,90.0,75.7,30.12,ESE,123,7.0,16.0,63,0.00,,SCT039,0.00,976.00,VWS V14.01,2013-07-08 18:19:00,
2013-07-08 14:24:00,90.4,75.6,30.12,East,87,9.0,16.0,62,0.00,,SCT039,0.00,933.00,VWS V14.01,2013-07-08 18:24:00,
2013-07-08 14:29:00,90.8,76.9,30.12,ESE,109,5.0,16.0,64,0.00,,SCT039,0.00,962.00,VWS V14.01,2013-07-08 18:29:00,
2013-07-08 14:34:00,91.0,76.7,30.12,ESE,104,9.0,15.0,63,0.00,,SCT039,0.00,1023.00,VWS V14.01,2013-07-08 18:34:00,
2013-07-08 14:40:00,91.3,76.5,30.12,East,98,10.0,15.0,62,0.00,,SCT039,0.00,1028.00,VWS V14.01,2013-07-08 18:40:00,
2013-07-08 14:45:00,91.0,76.2,30.12,ESE,105,10.0,15.0,62,0.00,,SCT039,0.00,1086.00,VWS V14.01,2013-07-08 18:45:00,
2013-07-08 14:51:00,90.1,76.3,30.12,ESE,122,7.0,15.0,64,0.00,,SCT039,0.00,1060.00,VWS V14.01,2013-07-08 18:51:00,
2013-07-08 14:57:00,90.8,76.5,30.12,SE,126,10.0,15.0,63,0.00,,SCT039,0.00,1085.00,VWS V14.01,2013-07-08 18:57:00,
2013-07-08 15:02:00,90.2,73.9,30.12,ESE,107,9.0,13.0,59,0.00,,BKN040,0.00,355.00,VWS V14.01,2013-07-08 19:02:00,
2013-07-08 15:07:00,90.9,75.1,30.12,East,88,5.0,13.0,60,0.00,,BKN040,0.00,977.00,VWS V14.01,2013-07-08 19:07:00,
2013-07-08 15:12:00,90.8,75.5,30.12,East,101,6.0,13.0,61,0.00,,BKN040,0.00,308.00,VWS V14.01,2013-07-08 19:12:00,
2013-07-08 15:17:00,91.1,75.3,30.11,East,97,9.0,13.0,60,0.00,,BKN040,0.00,1020.00,VWS V14.01,2013-07-08 19:17:00,
2013-07-08 15:22:00,89.8,75.1,30.11,East,88,10.0,13.0,62,0.00,,BKN040,0.00,322.00,VWS V14.01,2013-07-08 19:22:00,
2013-07-08 15:28:00,89.7,75.9,30.11,East,97,11.0,13.0,64,0.00,,BKN040,0.00,295.00,VWS V14.01,2013-07-08 19:28:00,
2013-07-08 15:33:00,90.1,76.8,30.11,East,82,13.0,13.0,65,0.00,,BKN040,0.00,991.00,VWS V14.01,2013-07-08 19:33:00,
2013-07-08 15:38:00,90.2,75.9,30.11,ESE,110,3.0,14.0,63,0.00,,BKN040,0.00,986.00,VWS V14.01,2013-07-08 19:38:00,
2013-07-08 15:43:00,90.6,75.8,30.11,ESE,123,8.0,14.0,62,0.00,,BKN040,0.00,290.00,VWS V14.01,2013-07-08 19:43:00,
2013-07-08 15:48:00,89.4,75.6,30.11,ESE,102,9.0,14.0,64,0.00,,BKN040,0.00,288.00,VWS V14.01,2013-07-08 19:48:00,
2013-07-08 15:54:00,89.0,75.2,30.10,ESE,117,4.0,14.0,64,0.00,,BKN040,0.00,334.00,VWS V14.01,2013-07-08 19:54:00,
2013-07-08 15:59:00,90.8,75.5,30.10,SE,124,6.0,14.0,61,0.00,,BKN040,0.00,960.00,VWS V14.01,2013-07-08 19:59:00,
2013-07-08 16:04:00,89.4,75.2,30.10,ESE,111,8.0,11.0,63,0.00,,BKN045,0.00,202.00,VWS V14.01,2013-07-08 20:04:00,
2013-07-08 16:09:00,88.6,74.4,30.10,SE,126,9.0,11.0,63,0.00,,BKN045,0.00,195.00,VWS V14.01,2013-07-08 20:09:00,
2013-07-08 16:14:00,89.4,76.1,30.10,East,99,5.0,12.0,65,0.00,,BKN045,0.00,789.00,VWS V14.01,2013-07-08 20:14:00,
2013-07-08 16:20:00,90.5,77.1,30.09,East,95,10.0,12.0,65,0.00,,BKN045,0.00,868.00,VWS V14.01,2013-07-08 20:20:00,
2013-07-08 16:25:00,89.9,75.1,30.09,East,84,7.0,12.0,62,0.00,,BKN045,0.00,422.00,VWS V14.01,2013-07-08 20:25:00,
2013-07-08 16:30:00,90.1,74.8,30.09,East,93,9.0,13.0,61,0.00,,BKN045,0.00,786.00,VWS V14.01,2013-07-08 20:30:00,
2013-07-08 16:35:00,90.1,74.8,30.09,ENE,74,5.0,13.0,61,0.00,,BKN045,0.00,777.00,VWS V14.01,2013-07-08 20:35:00,
2013-07-08 16:41:00,90.4,75.1,30.08,East,101,11.0,13.0,61,0.00,,BKN045,0.00,708.00,VWS V14.01,2013-07-08 20:41:00,
2013-07-08 16:46:00,90.2,74.4,30.08,ESE,115,9.0,13.0,60,0.00,,BKN045,0.00,703.00,VWS V14.01,2013-07-08 20:46:00,
2013-07-08 16:51:00,90.2,74.9,30.08,East,86,5.0,13.0,61,0.00,,BKN045,0.00,775.00,VWS V14.01,2013-07-08 20:51:00,
2013-07-08 16:58:00,90.4,76.1,30.08,ENE,65,7.0,13.0,63,0.00,,BKN045,0.00,782.00,VWS V14.01,2013-07-08 20:58:00,
2013-07-08 17:03:00,90.5,74.7,30.08,East,90,8.0,15.0,60,0.00,,SCT060,0.00,647.00,VWS V14.01,2013-07-08 21:03:00,
2013-07-08 17:09:00,89.1,73.9,30.08,ESE,121,11.0,15.0,61,0.00,,SCT060,0.00,146.00,VWS V14.01,2013-07-08 21:09:00,
2013-07-08 17:14:00,89.4,75.2,30.08,East,97,2.0,15.0,63,0.00,,SCT060,0.00,531.00,VWS V14.01,2013-07-08 21:14:00,
2013-07-08 17:19:00,89.7,74.5,30.08,East,88,7.0,15.0,61,0.00,,SCT060,0.00,506.00,VWS V14.01,2013-07-08 21:19:00,
2013-07-08 17:25:00,89.2,73.5,30.08,SE,135,7.0,15.0,60,0.00,,SCT060,0.00,171.00,VWS V14.01,2013-07-08 21:25:00,
2013-07-08 17:30:00,89.2,73.5,30.08,East,83,7.0,15.0,60,0.00,,SCT060,0.00,399.00,VWS V14.01,2013-07-08 21:30:00,
2013-07-08 17:35:00,89.5,74.8,30.07,East,82,6.0,11.0,62,0.00,,SCT060,0.00,469.00,VWS V14.01,2013-07-08 21:35:00,
2013-07-08 17:41:00,89.9,73.7,30.07,East,101,6.0,14.0,59,0.00,,SCT060,0.00,506.00,VWS V14.01,2013-07-08 21:41:00,
2013-07-08 17:46:00,89.7,73.5,30.07,SE,128,5.0,14.0,59,0.00,,SCT060,0.00,200.00,VWS V14.01,2013-07-08 21:46:00,
2013-07-08 17:51:00,89.3,73.6,30.07,ENE,75,10.0,14.0,60,0.00,,SCT060,0.00,295.00,VWS V14.01,2013-07-08 21:51:00,
2013-07-08 17:57:00,88.6,72.9,30.08,ESE,114,4.0,14.0,60,0.00,,SCT060,0.00,223.00,VWS V14.01,2013-07-08 21:57:00,
2013-07-08 18:03:00,88.3,73.2,30.07,ENE,78,4.0,9.0,61,0.00,,SCT050,0.00,264.00,VWS V14.01,2013-07-08 22:03:00,
2013-07-08 18:08:00,88.5,72.8,30.07,East,84,6.0,10.0,60,0.00,,SCT050,0.00,330.00,VWS V14.01,2013-07-08 22:08:00,
2013-07-08 18:14:00,89.2,74.0,30.08,ESE,117,8.0,11.0,61,0.00,,SCT050,0.00,464.00,VWS V14.01,2013-07-08 22:14:00,
2013-07-08 18:19:00,89.5,73.8,30.08,East,92,6.0,14.0,60,0.00,,SCT050,0.00,401.00,VWS V14.01,2013-07-08 22:19:00,
2013-07-08 18:24:00,89.6,73.4,30.08,ESE,105,4.0,14.0,59,0.00,,SCT050,0.00,221.00,VWS V14.01,2013-07-08 22:24:00,
2013-07-08 18:29:00,89.4,73.7,30.08,East,92,3.0,14.0,60,0.00,,SCT050,0.00,336.00,VWS V14.01,2013-07-08 22:29:00,
2013-07-08 18:35:00,89.2,73.5,30.08,East,92,5.0,9.0,60,0.00,,SCT050,0.00,206.00,VWS V14.01,2013-07-08 22:35:00,
2013-07-08 18:40:00,88.4,73.2,30.08,East,82,3.0,10.0,61,0.00,,SCT050,0.00,113.00,VWS V14.01,2013-07-08 22:40:00,
2013-07-08 18:45:00,88.0,72.9,30.07,ENE,71,4.0,11.0,61,0.00,,SCT050,0.00,107.00,VWS V14.01,2013-07-08 22:45:00,
2013-07-08 18:51:00,87.5,72.4,30.07,East,96,3.0,11.0,61,0.00,,SCT050,0.00,81.00,VWS V14.01,2013-07-08 22:51:00,
2013-07-08 18:56:00,87.3,72.7,30.07,East,90,7.0,11.0,62,0.00,,SCT050,0.00,156.00,VWS V14.01,2013-07-08 22:56:00,
2013-07-08 19:01:00,87.5,73.4,30.07,ESE,110,4.0,4.0,63,0.00,,SCT050,0.00,248.00,VWS V14.01,2013-07-08 23:01:00,
2013-07-08 19:06:00,87.9,73.7,30.07,East,100,3.0,9.0,63,0.00,,SCT050,0.00,232.00,VWS V14.01,2013-07-08 23:06:00,
2013-07-08 19:12:00,87.8,73.6,30.07,ENE,60,2.0,11.0,63,0.00,,SCT050,0.00,167.00,VWS V14.01,2013-07-08 23:12:00,
2013-07-08 19:17:00,87.6,73.5,30.07,East,99,2.0,11.0,63,0.00,,SCT050,0.00,179.00,VWS V14.01,2013-07-08 23:17:00,
2013-07-08 19:22:00,87.5,73.4,30.08,ESE,113,5.0,11.0,63,0.00,,SCT050,0.00,130.00,VWS V14.01,2013-07-08 23:22:00,
2013-07-08 19:28:00,87.2,73.1,30.08,East,89,5.0,11.0,63,0.00,,SCT050,0.00,123.00,VWS V14.01,2013-07-08 23:28:00,
2013-07-08 19:34:00,86.8,73.6,30.08,ENE,69,5.0,10.0,65,0.00,,SCT050,0.00,77.00,VWS V14.01,2013-07-08 23:34:00,
2013-07-08 19:39:00,86.6,73.9,30.08,East,84,6.0,13.0,66,0.00,,SCT050,0.00,60.00,VWS V14.01,2013-07-08 23:39:00,
2013-07-08 19:45:00,86.1,73.9,30.09,East,85,6.0,13.0,67,0.00,,SCT050,0.00,53.00,VWS V14.01,2013-07-08 23:45:00,
2013-07-08 19:50:00,85.8,74.0,30.09,East,88,2.0,13.0,68,0.00,,SCT050,0.00,49.00,VWS V14.01,2013-07-08 23:50:00,
2013-07-08 19:57:00,85.4,74.1,30.09,East,82,5.0,13.0,69,0.00,,SCT050,0.00,40.00,VWS V14.01,2013-07-08 23:57:00,
2013-07-08 20:02:00,85.1,74.2,30.09,East,101,3.0,5.0,70,0.00,,FEW048,0.00,32.00,VWS V14.01,2013-07-09 00:02:00,
2013-07-08 20:07:00,84.9,74.4,30.09,East,79,5.0,5.0,71,0.00,,FEW048,0.00,25.00,VWS V14.01,2013-07-09 00:07:00,
2013-07-08 20:13:00,84.7,74.3,30.10,East,94,2.0,7.0,71,0.00,,FEW048,0.00,14.00,VWS V14.01,2013-07-09 00:13:00,
2013-07-08 20:19:00,84.6,74.2,30.10,East,97,8.0,9.0,71,0.00,,FEW048,0.00,7.00,VWS V14.01,2013-07-09 00:19:00,
2013-07-08 20:25:00,84.4,74.4,30.10,ENE,78,3.0,9.0,72,0.00,,FEW048,0.00,0.00,VWS V14.01,2013-07-09 00:25:00,
2013-07-08 20:31:00,84.2,74.2,30.10,East,93,7.0,9.0,72,0.00,,FEW048,0.00,0.00,VWS V14.01,2013-07-09 00:31:00,
2013-07-08 20:36:00,84.0,74.0,30.11,ENE,72,4.0,7.0,72,0.00,,FEW048,0.00,0.00,VWS V14.01,2013-07-09 00:36:00,
2013-07-08 20:41:00,83.9,74.3,30.11,East,87,3.0,7.0,73,0.00,,CLR,0.00,0.00,VWS V14.01,2013-07-09 00:41:00,
2013-07-08 20:46:00,83.6,74.4,30.11,East,94,2.0,7.0,74,0.00,,CLR,0.00,0.00,VWS V14.01,2013-07-09 00:46:00,
2013-07-08 20:52:00,83.2,74.1,30.12,East,81,1.0,7.0,74,0.00,,CLR,0.00,0.00,VWS V14.01,2013-07-09 00:52:00,
2013-07-08 20:58:00,83.0,74.3,30.12,ENE,76,2.0,7.0,75,0.00,,CLR,0.00,0.00,VWS V14.01,2013-07-09 00:58:00,
2013-07-08 21:03:00,83.0,74.3,30.12,East,96,3.0,3.0,75,0.00,,CLR,0.00,0.00,VWS V14.01,2013-07-09 01:03:00,
2013-07-08 21:09:00,82.8,74.5,30.12,East,85,1.0,6.0,76,0.00,,CLR,0.00,0.00,VWS V14.01,2013-07-09 01:09:00,
2013-07-08 21:14:00,82.6,74.3,30.12,ESE,106,2.0,6.0,76,0.00,,CLR,0.00,0.00,VWS V14.01,2013-07-09 01:14:00,
2013-07-08 21:19:00,82.5,74.2,30.12,ENE,69,3.0,7.0,76,0.00,,CLR,0.00,0.00,VWS V14.01,2013-07-09 01:19:00,
2013-07-08 21:24:00,82.4,74.5,30.13,East,82,3.0,9.0,77,0.00,,CLR,0.00,0.00,VWS V14.01,2013-07-09 01:24:00,
2013-07-08 21:29:00,82.4,74.5,30.13,East,96,3.0,9.0,77,0.00,,CLR,0.00,0.00,VWS V14.01,2013-07-09 01:29:00,
2013-07-08 21:34:00,82.3,74.0,30.13,East,88,5.0,8.0,76,0.00,,CLR,0.00,0.00,VWS V14.01,2013-07-09 01:34:00,
2013-07-08 21:40:00,82.1,74.2,30.13,East,86,3.0,9.0,77,0.00,,CLR,0.00,0.00,VWS V14.01,2013-07-09 01:40:00,
2013-07-08 21:45:00,81.9,74.0,30.13,ESE,106,5.0,9.0,77,0.00,,CLR,0.00,0.00,VWS V14.01,2013-07-09 01:45:00,
2013-07-08 21:50:00,81.9,74.0,30.14,East,84,5.0,9.0,77,0.00,,CLR,0.00,0.00,VWS V14.01,2013-07-09 01:50:00,
2013-07-08 21:55:00,81.8,73.9,30.14,East,86,3.0,9.0,77,0.00,,CLR,0.00,0.00,VWS V14.01,2013-07-09 01:55:00,
2013-07-08 22:00:00,81.6,74.1,30.14,ENE,76,1.0,9.0,78,0.00,,CLR,0.00,0.00,VWS V14.01,2013-07-09 02:00:00,
2013-07-08 22:05:00,81.5,74.0,30.14,East,90,5.0,8.0,78,0.00,,CLR,0.00,0.00,VWS V14.01,2013-07-09 02:05:00,
2013-07-08 22:10:00,81.3,74.2,30.14,ENE,71,3.0,8.0,79,0.00,,CLR,0.00,0.00,VWS V14.01,2013-07-09 02:10:00,
2013-07-08 22:16:00,81.2,74.1,30.14,East,84,5.0,8.0,79,0.00,,CLR,0.00,0.00,VWS V14.01,2013-07-09 02:16:00,
2013-07-08 22:21:00,81.0,74.2,30.14,East,80,8.0,8.0,80,0.00,,CLR,0.00,0.00,VWS V14.01,2013-07-09 02:21:00,
2013-07-08 22:26:00,80.9,74.2,30.15,East,97,8.0,8.0,80,0.00,,CLR,0.00,0.00,VWS V14.01,2013-07-09 02:26:00,
2013-07-08 22:31:00,80.7,74.3,30.15,ENE,71,3.0,4.0,81,0.00,,CLR,0.00,0.00,VWS V14.01,2013-07-09 02:31:00,
2013-07-08 22:37:00,80.6,74.6,30.16,East,90,2.0,9.0,82,0.00,,CLR,0.00,0.00,VWS V14.01,2013-07-09 02:37:00,
2013-07-08 22:42:00,80.4,74.4,30.16,East,86,7.0,9.0,82,0.00,,CLR,0.00,0.00,VWS V14.01,2013-07-09 02:42:00,
2013-07-08 22:47:00,80.3,74.3,30.16,East,88,6.0,9.0,82,0.00,,CLR,0.00,0.00,VWS V14.01,2013-07-09 02:47:00,
2013-07-08 22:52:00,80.2,74.6,30.16,ENE,75,4.0,9.0,83,0.00,,CLR,0.00,0.00,VWS V14.01,2013-07-09 02:52:00,
2013-07-08 22:57:00,80.1,74.5,30.16,East,93,2.0,9.0,83,0.00,,CLR,0.00,0.00,VWS V14.01,2013-07-09 02:57:00,
2013-07-08 23:04:00,79.9,74.6,30.16,ENE,75,4.0,8.0,84,0.00,,CLR,0.00,0.00,VWS V14.01,2013-07-09 03:04:00,
2013-07-08 23:09:00,79.8,74.5,30.16,East,93,5.0,8.0,84,0.00,,CLR,0.00,0.00,VWS V14.01,2013-07-09 03:09:00,
2013-07-08 23:15:00,79.8,74.5,30.16,East,101,5.0,9.0,84,0.00,,CLR,0.00,0.00,VWS V14.01,2013-07-09 03:15:00,
2013-07-08 23:20:00,79.6,74.7,30.16,East,92,6.0,9.0,85,0.00,,SCT060,0.00,0.00,VWS V14.01,2013-07-09 03:20:00,
2013-07-08 23:25:00,79.6,74.7,30.16,ESE,108,5.0,9.0,85,0.00,,SCT060,0.00,0.00,VWS V14.01,2013-07-09 03:25:00,
2013-07-08 23:31:00,79.5,74.6,30.16,ENE,76,4.0,9.0,85,0.00,,SCT060,0.00,0.00,VWS V14.01,2013-07-09 03:31:00,
2013-07-08 23:38:00,79.3,74.8,30.16,East,90,3.0,8.0,86,0.00,,SCT060,0.00,0.00,VWS V14.01,2013-07-09 03:38:00,
2013-07-08 23:43:00,79.3,74.8,30.16,ESE,107,2.0,8.0,86,0.00,,SCT060,0.00,0.00,VWS V14.01,2013-07-09 03:43:00,
2013-07-08 23:48:00,79.2,74.7,30.16,East,96,5.0,8.0,86,0.00,,SCT060,0.00,0.00,VWS V14.01,2013-07-09 03:48:00,
2013-07-08 23:53:00,79.1,74.6,30.16,East,83,3.0,8.0,86,0.00,,SCT060,0.00,0.00,VWS V14.01,2013-07-09 03:53:00,
2013-07-08 23:58:00,79.0,74.8,30.16,East,91,5.0,8.0,87,0.00,,CLR,0.00,0.00,VWS V14.01,2013-07-09 03:58:00,